Time;durP1;ratioP1;P1;durP2;ratioP2;P2;SDS_P1;SDS_P2;PMS_P1;PMS_P2;Temp;Humidity;BMP_temperature;BMP_pressure;BME280_temperature;BME280_humidity;BME280_pressure;Samples;Min_cycle;Max_cycle;Signal;HPM_P1;HPM_P2
2021/05/28 00:01:48;;;;;;;6.50;4.90;;;;;;;30.71;28.28;94201.19;5075010;28;20051;-59
2021/05/28 00:04:15;;;;;;;5.93;4.70;;;;;;;30.53;28.44;94196.13;5056515;28;20048;-48
2021/05/28 00:06:42;;;;;;;8.88;4.55;;;;;;;30.58;28.69;94194.88;5055648;28;20056;-51
2021/05/28 00:09:09;;;;;;;5.78;4.22;;;;;;;31.01;27.47;94194.72;5056352;28;20085;-57
2021/05/28 00:11:37;;;;;;;5.05;4.30;;;;;;;31.14;27.52;94190.16;5068802;28;20055;-51
2021/05/28 00:14:04;;;;;;;5.60;4.30;;;;;;;30.52;28.71;94186.53;5075712;28;20362;-53
2021/05/28 00:16:33;;;;;;;6.10;3.67;;;;;;;30.44;28.61;94182.44;5075923;28;20045;-50
2021/05/28 00:19:00;;;;;;;8.82;4.30;;;;;;;30.82;28.16;94180.09;5076172;28;20366;-49
2021/05/28 00:21:27;;;;;;;7.13;3.88;;;;;;;30.39;28.70;94170.22;5075946;28;20045;-57
2021/05/28 00:23:54;;;;;;;5.05;3.38;;;;;;;30.32;28.51;94166.91;5075331;28;20052;-53
2021/05/28 00:26:22;;;;;;;5.53;3.60;;;;;;;31.01;26.75;94162.34;5076126;28;20044;-56
2021/05/28 00:28:49;;;;;;;4.53;3.60;;;;;;;31.02;26.87;94165.78;5075919;28;20480;-51
2021/05/28 00:31:18;;;;;;;4.22;3.22;;;;;;;30.92;26.79;94160.22;5075916;28;20378;-52
2021/05/28 00:33:46;;;;;;;6.00;3.50;;;;;;;30.93;27.20;94152.88;5074658;28;20363;-56
2021/05/28 00:36:14;;;;;;;5.03;3.20;;;;;;;31.00;27.04;94147.31;5075411;28;20048;-54
2021/05/28 00:38:41;;;;;;;5.32;3.42;;;;;;;31.03;27.09;94154.56;5075815;28;20040;-51
2021/05/28 00:41:08;;;;;;;5.88;3.40;;;;;;;30.67;27.56;94143.81;5075048;28;20056;-57
2021/05/28 00:43:36;;;;;;;4.50;2.90;;;;;;;30.82;27.03;94142.34;5075491;28;20379;-53
2021/05/28 00:46:03;;;;;;;4.60;3.35;;;;;;;30.58;27.20;94149.78;5075364;28;20044;-50
2021/05/28 00:48:30;;;;;;;3.28;2.90;;;;;;;30.37;27.80;94147.53;5075689;28;20063;-52
2021/05/28 00:50:57;;;;;;;7.20;3.72;;;;;;;30.86;27.31;94151.09;5075411;28;20071;-50
2021/05/28 00:53:25;;;;;;;5.05;3.50;;;;;;;30.45;28.34;94143.53;5075273;28;20059;-58
2021/05/28 00:55:53;;;;;;;6.25;3.80;;;;;;;30.58;28.27;94149.78;5075231;28;20045;-55
2021/05/28 00:58:20;;;;;;;6.25;3.70;;;;;;;30.72;27.61;94142.59;5075363;28;20059;-59
2021/05/28 01:00:48;;;;;;;6.70;4.05;;;;;;;30.43;28.21;94142.41;5083154;28;20044;-51
2021/05/28 01:03:16;;;;;;;5.97;3.60;;;;;;;30.49;28.46;94143.44;5075194;28;20435;-47
2021/05/28 01:05:43;;;;;;;6.07;4.03;;;;;;;30.10;28.95;94149.66;5075150;28;20049;-50
2021/05/28 01:08:10;;;;;;;4.80;3.63;;;;;;;30.26;28.68;94145.09;5075117;28;20087;-53
2021/05/28 01:10:37;;;;;;;5.88;3.65;;;;;;;29.67;29.28;94142.38;5074547;28;20056;-57
2021/05/28 01:13:06;;;;;;;5.78;4.13;;;;;;;30.55;28.31;94134.44;5074457;28;20071;-53
2021/05/28 01:15:34;;;;;;;6.38;4.47;;;;;;;29.94;28.82;94144.94;5090096;28;20044;-55
2021/05/28 01:18:09;;;;;;;7.55;4.15;;;;;;;30.38;28.18;94147.13;5074977;28;20052;-53
2021/05/28 01:20:36;;;;;;;5.20;4.35;;;;;;;29.96;28.66;94154.13;5074841;28;20439;-52
2021/05/28 01:23:04;;;;;;;4.82;4.05;;;;;;;30.04;28.51;94144.75;5074757;28;20044;-54
2021/05/28 01:25:32;;;;;;;5.00;4.05;;;;;;;29.74;28.77;94147.63;5074275;28;20366;-49
2021/05/28 01:27:59;;;;;;;4.55;3.50;;;;;;;29.95;28.53;94149.91;5068225;28;20373;-53
2021/05/28 01:30:27;;;;;;;9.65;4.13;;;;;;;29.84;28.43;94143.97;5084871;28;20055;-51
2021/05/28 01:32:54;;;;;;;7.40;3.65;;;;;;;29.75;28.53;94149.16;5094348;28;20051;-55
2021/05/28 01:35:22;;;;;;;5.40;4.03;;;;;;;29.58;28.73;94134.06;5089007;28;20055;-53
2021/05/28 01:37:49;;;;;;;5.40;3.83;;;;;;;30.30;27.92;94134.22;5074807;28;20051;-55
2021/05/28 01:40:20;;;;;;;6.65;3.63;;;;;;;29.13;29.15;94129.81;5070638;28;20063;-53
2021/05/28 01:42:48;;;;;;;8.57;4.30;;;;;;;29.28;28.99;94124.97;5061194;28;20041;-54
2021/05/28 01:45:15;;;;;;;6.63;4.15;;;;;;;29.42;28.93;94127.41;5074604;28;20051;-53
2021/05/28 01:47:43;;;;;;;5.47;4.00;;;;;;;28.97;29.23;94123.56;5074750;28;20057;-57
2021/05/28 01:50:11;;;;;;;6.10;4.00;;;;;;;29.07;29.41;94109.94;5074206;28;20055;-55
2021/05/28 01:52:38;;;;;;;5.82;4.10;;;;;;;29.07;29.50;94109.16;5074266;28;20431;-56
2021/05/28 01:55:08;;;;;;;7.32;3.63;;;;;;;29.03;29.62;94108.47;5074327;28;20075;-54
2021/05/28 01:57:36;;;;;;;5.88;3.78;;;;;;;28.85;29.96;94117.59;5094492;28;20058;-56
2021/05/28 02:00:09;;;;;;;8.57;3.47;;;;;;;28.60;30.23;94125.25;5094775;28;20370;-56
2021/05/28 02:02:37;;;;;;;6.55;3.65;;;;;;;28.70;30.32;94126.25;5091816;28;20055;-57
2021/05/28 02:05:05;;;;;;;5.03;3.58;;;;;;;28.78;30.01;94123.06;5074239;28;20051;-56
2021/05/28 02:07:32;;;;;;;7.32;4.10;;;;;;;28.65;30.23;94116.72;5074594;28;20052;-54
2021/05/28 02:09:59;;;;;;;4.90;3.88;;;;;;;28.30;30.47;94083.03;5074014;28;20463;-57
2021/05/28 02:12:27;;;;;;;4.68;3.75;;;;;;;29.07;29.51;94106.47;5073762;28;20544;-56
2021/05/28 02:14:57;;;;;;;7.75;4.03;;;;;;;28.59;30.57;94102.22;5074078;28;20134;-56
2021/05/28 02:17:24;;;;;;;8.60;3.38;;;;;;;28.56;30.28;94103.03;5074410;28;20048;-55
2021/05/28 02:19:54;;;;;;;10.05;4.60;;;;;;;28.56;30.67;94098.41;5074162;28;20048;-55
2021/05/28 02:22:21;;;;;;;6.22;3.83;;;;;;;29.27;29.19;94099.22;5073235;28;20044;-59
2021/05/28 02:24:49;;;;;;;11.05;4.60;;;;;;;28.53;30.04;94093.09;5077065;28;20044;-56
2021/05/28 02:27:16;;;;;;;6.90;3.22;;;;;;;28.77;30.05;94086.56;5078195;28;20056;-57
2021/05/28 02:29:43;;;;;;;4.15;3.47;;;;;;;29.06;29.40;94088.81;5078175;28;20045;-54
2021/05/28 02:32:10;;;;;;;6.72;3.50;;;;;;;29.28;29.52;94092.66;5078097;28;20122;-57
2021/05/28 02:34:38;;;;;;;7.40;3.35;;;;;;;29.10;29.38;94094.88;5076688;28;20457;-56
2021/05/28 02:37:05;;;;;;;6.00;3.78;;;;;;;28.89;29.95;94096.03;5078131;28;20052;-56
2021/05/28 02:39:33;;;;;;;6.78;3.40;;;;;;;29.00;30.03;94095.84;5077800;28;20052;-57
2021/05/28 02:42:01;;;;;;;5.20;3.17;;;;;;;29.13;29.74;94097.50;5077506;28;20055;-59
2021/05/28 02:44:28;;;;;;;4.80;3.15;;;;;;;28.51;30.88;94095.41;5077707;28;20040;-57
2021/05/28 02:46:55;;;;;;;6.93;3.22;;;;;;;28.17;31.44;94101.63;5077717;28;20048;-55
2021/05/28 02:49:22;;;;;;;4.22;3.45;;;;;;;28.86;29.80;94105.66;5077848;28;20397;-55
2021/05/28 02:51:49;;;;;;;7.47;3.70;;;;;;;29.28;29.74;94116.13;5077849;28;20051;-55
2021/05/28 02:54:16;;;;;;;5.85;3.70;;;;;;;28.82;30.42;94131.81;5077472;28;20056;-58
2021/05/28 02:56:43;;;;;;;6.13;3.60;;;;;;;28.30;31.37;94122.59;5077692;28;20044;-56
2021/05/28 02:59:11;;;;;;;6.38;3.63;;;;;;;28.89;30.56;94132.91;5076644;28;20055;-57
2021/05/28 03:01:38;;;;;;;7.72;3.20;;;;;;;29.00;30.59;94125.44;5059967;28;20451;-58
2021/05/28 03:04:05;;;;;;;5.72;3.85;;;;;;;29.06;30.56;94138.00;5077155;28;20055;-55
2021/05/28 03:06:32;;;;;;;7.18;3.92;;;;;;;29.14;30.21;94128.63;5077624;28;20052;-56
2021/05/28 03:09:00;;;;;;;5.72;3.75;;;;;;;29.30;30.19;94130.69;5077280;28;20041;-57
2021/05/28 03:11:27;;;;;;;6.25;4.00;;;;;;;28.75;30.84;94134.63;5076752;28;20048;-57
2021/05/28 03:13:54;;;;;;;9.02;3.80;;;;;;;28.60;31.38;94138.69;5076923;28;20045;-58
2021/05/28 03:16:21;;;;;;;6.28;3.70;;;;;;;29.20;30.58;94128.94;5077477;28;20075;-56
2021/05/28 03:23:59;;;;;;;8.57;4.25;;;;;;;28.83;31.33;94125.28;5076260;28;20055;-58
2021/05/28 03:26:28;;;;;;;7.82;3.85;;;;;;;28.91;31.01;94115.22;5077229;28;20043;-54
2021/05/28 03:28:56;;;;;;;6.47;3.85;;;;;;;29.22;30.42;94129.28;5076916;28;20444;-57
2021/05/28 03:31:24;;;;;;;7.45;4.20;;;;;;;29.24;30.53;94140.41;5076247;28;20044;-56
2021/05/28 03:33:52;;;;;;;9.68;4.40;;;;;;;28.64;31.18;94155.56;5076098;28;20051;-56
2021/05/28 03:36:20;;;;;;;9.18;4.85;;;;;;;28.92;30.32;94159.00;5059354;28;20045;-55
2021/05/28 03:38:47;;;;;;;6.47;4.60;;;;;;;29.34;29.85;94169.06;5059615;28;20052;-55
2021/05/28 03:41:15;;;;;;;5.13;4.55;;;;;;;29.20;30.74;94174.69;5065896;28;20092;-57
2021/05/28 03:43:43;;;;;;;8.63;4.47;;;;;;;29.15;30.78;94177.88;5065572;28;20079;-59
2021/05/28 03:46:10;;;;;;;6.63;4.53;;;;;;;28.81;31.77;94178.72;5075506;28;20044;-63
2021/05/28 03:48:38;;;;;;;4.47;4.03;;;;;;;29.10;31.25;94181.00;5076251;28;20071;-60
2021/05/28 03:51:05;;;;;;;6.18;4.80;;;;;;;28.89;31.48;94176.72;5058840;28;20045;-57
2021/05/28 03:53:32;;;;;;;7.43;4.80;;;;;;;29.23;31.07;94179.25;5076528;28;20048;-56
2021/05/28 03:56:00;;;;;;;6.50;4.68;;;;;;;29.13;31.25;94172.09;5076592;28;20048;-59
2021/05/28 03:58:29;;;;;;;7.55;4.20;;;;;;;29.49;30.29;94168.88;5076858;28;20052;-53
2021/05/28 04:01:03;;;;;;;7.80;4.75;;;;;;;28.99;31.53;94175.03;5079235;28;20056;-58
2021/05/28 04:03:30;;;;;;;6.47;4.30;;;;;;;28.82;31.80;94172.16;5076374;28;20055;-54
2021/05/28 04:05:58;;;;;;;5.68;4.15;;;;;;;29.16;31.51;94168.63;5076487;28;20052;-56
2021/05/28 04:08:25;;;;;;;6.15;4.72;;;;;;;29.10;31.67;94170.22;5079730;28;20059;-55
2021/05/28 04:10:52;;;;;;;8.23;4.65;;;;;;;29.23;31.51;94168.50;5067046;28;20059;-56
2021/05/28 04:13:19;;;;;;;8.68;4.95;;;;;;;29.52;30.70;94157.28;5055291;28;20123;-55
2021/05/28 04:15:46;;;;;;;7.35;5.22;;;;;;;29.60;30.40;94150.56;5071269;28;20497;-55
2021/05/28 04:18:14;;;;;;;6.32;4.47;;;;;;;29.71;29.95;94132.31;5064678;28;20049;-53
2021/05/28 04:20:44;;;;;;;6.15;5.10;;;;;;;29.99;29.45;94141.75;5068228;28;20049;-46
2021/05/28 04:23:11;;;;;;;8.57;4.40;;;;;;;29.55;30.14;94142.97;5074893;28;20049;-63
2021/05/28 04:25:38;;;;;;;6.97;4.57;;;;;;;29.46;30.20;94138.13;5075354;28;20044;-55
2021/05/28 04:28:06;;;;;;;7.03;4.82;;;;;;;29.42;30.52;94148.94;5075028;28;20052;-57
2021/05/28 04:30:34;;;;;;;4.72;4.10;;;;;;;29.06;31.38;94148.00;5074796;28;20074;-48
2021/05/28 04:33:01;;;;;;;6.88;4.57;;;;;;;29.65;30.50;94152.78;5074886;28;20056;-54
2021/05/28 04:35:28;;;;;;;6.82;4.35;;;;;;;29.83;29.98;94144.38;5075785;28;20052;-47
2021/05/28 04:37:55;;;;;;;4.70;4.22;;;;;;;31.92;27.14;94154.28;5075142;28;20060;-54
2021/05/28 04:40:22;;;;;;;6.88;4.30;;;;;;;32.25;27.23;94150.25;5074088;28;20147;-55
2021/05/28 04:42:49;;;;;;;6.85;4.47;;;;;;;32.40;26.85;94137.88;5075297;28;20577;-53
2021/05/28 04:45:17;;;;;;;8.90;4.53;;;;;;;33.17;26.22;94146.00;5087881;28;20048;-64
2021/05/28 04:47:44;;;;;;;13.05;5.47;;;;;;;33.00;26.00;94148.06;5089543;28;20055;-70
2021/05/28 04:50:12;;;;;;;8.38;4.85;;;;;;;31.43;28.23;94152.44;5074699;28;20056;-57
2021/05/28 04:52:41;;;;;;;5.20;4.70;;;;;;;30.48;29.53;94150.78;5075637;28;20045;-62
2021/05/28 04:55:09;;;;;;;5.85;4.80;;;;;;;30.53;30.10;94152.97;5075393;28;20367;-65
2021/05/28 04:57:36;;;;;;;5.82;5.15;;;;;;;30.37;30.18;94161.03;5057676;28;20493;-67
2021/05/28 05:00:05;;;;;;;7.88;4.85;;;;;;;30.56;30.03;94162.94;5075012;28;20392;-56
2021/05/28 05:02:32;;;;;;;5.85;5.25;;;;;;;30.23;30.35;94166.72;5075596;28;20070;-67
2021/05/28 05:04:59;;;;;;;8.30;5.07;;;;;;;30.23;30.02;94164.03;5075150;28;20041;-67
2021/05/28 05:07:26;;;;;;;6.50;5.30;;;;;;;29.81;30.65;94163.66;5075660;28;20052;-66
2021/05/28 05:09:53;;;;;;;6.00;4.68;;;;;;;29.94;30.54;94166.50;5074220;28;20052;-62
2021/05/28 05:12:21;;;;;;;6.65;4.50;;;;;;;29.69;31.03;94172.34;5074615;28;20055;-60
2021/05/28 05:14:48;;;;;;;4.88;3.88;;;;;;;29.44;31.86;94173.56;5075099;28;20351;-56
2021/05/28 05:17:15;;;;;;;5.65;3.78;;;;;;;29.94;30.96;94182.66;5075137;28;20055;-63
2021/05/28 05:19:42;;;;;;;7.20;4.20;;;;;;;29.34;32.16;94179.06;5075158;28;20075;-53
2021/05/28 05:22:09;;;;;;;6.07;3.55;;;;;;;29.57;31.71;94181.03;5074644;28;20047;-66
2021/05/28 05:24:37;;;;;;;3.67;3.38;;;;;;;29.53;31.04;94180.34;5074775;28;20052;-67
2021/05/28 05:27:04;;;;;;;5.65;3.50;;;;;;;29.74;30.67;94185.34;5075053;28;20071;-63
2021/05/28 05:29:31;;;;;;;4.35;3.10;;;;;;;29.88;30.21;94179.69;5074820;28;20366;-66
2021/05/28 05:31:59;;;;;;;3.95;3.00;;;;;;;30.12;30.91;94198.50;5074608;28;20067;-49
2021/05/28 05:34:26;;;;;;;3.72;3.17;;;;;;;29.45;31.95;94185.84;5074657;28;20044;-65
2021/05/28 05:36:53;;;;;;;4.30;3.40;;;;;;;30.02;31.06;94198.28;5075052;28;20055;-66
2021/05/28 05:39:22;;;;;;;3.78;3.10;;;;;;;29.70;31.20;94190.78;5074789;28;20048;-53
2021/05/28 05:41:49;;;;;;;3.42;3.10;;;;;;;30.03;30.96;94197.13;5074260;28;20083;-67
2021/05/28 05:44:16;;;;;;;3.70;3.13;;;;;;;30.25;30.01;94194.03;5074611;28;20044;-67
2021/05/28 05:46:45;;;;;;;3.95;2.60;;;;;;;30.66;30.38;94193.56;5074842;28;20040;-47
2021/05/28 05:49:12;;;;;;;3.47;2.20;;;;;;;30.80;29.49;94206.00;5074638;28;20358;-60
2021/05/28 05:51:39;;;;;;;3.25;2.35;;;;;;;30.61;29.22;94202.91;5073020;28;20036;-68
2021/05/28 05:54:06;;;;;;;2.17;1.90;;;;;;;30.87;28.86;94208.53;5073041;28;20055;-48
2021/05/28 05:56:34;;;;;;;2.60;2.03;;;;;;;30.88;28.43;94210.81;5074697;28;20048;-68
2021/05/28 05:59:01;;;;;;;2.15;1.88;;;;;;;31.50;28.50;94206.31;5073805;28;20051;-64
2021/05/28 06:01:28;;;;;;;2.15;1.80;;;;;;;32.03;26.71;94203.44;5074739;28;20044;-58
2021/05/28 06:03:55;;;;;;;2.28;2.08;;;;;;;32.07;27.13;94204.09;5074064;28;20316;-66
2021/05/28 06:06:23;;;;;;;2.40;2.20;;;;;;;31.67;27.94;94208.97;5074688;28;20070;-52
2021/05/28 06:08:51;;;;;;;2.78;1.83;;;;;;;32.38;26.78;94202.47;5074479;28;20359;-67
2021/05/28 06:11:19;;;;;;;3.88;2.28;;;;;;;31.71;27.40;94193.41;5073900;28;20059;-66
2021/05/28 06:13:46;;;;;;;2.85;1.98;;;;;;;32.36;27.33;94204.84;5073910;28;20063;-53
2021/05/28 06:16:14;;;;;;;4.65;2.08;;;;;;;32.76;26.25;94201.75;5074419;28;20371;-68
2021/05/28 06:18:41;;;;;;;2.13;1.80;;;;;;;32.40;27.28;94194.69;5074444;28;20041;-68
2021/05/28 06:21:09;;;;;;;2.00;1.60;;;;;;;32.68;26.60;94195.03;5074279;28;20363;-65
2021/05/28 06:23:36;;;;;;;2.95;1.70;;;;;;;32.95;25.91;94205.47;5073915;28;20302;-65
2021/05/28 06:26:03;;;;;;;3.78;1.85;;;;;;;32.61;26.32;94203.38;5074309;28;20055;-62
2021/05/28 06:28:30;;;;;;;3.42;1.70;;;;;;;32.72;26.75;94204.56;5074343;28;20044;-65
2021/05/28 06:30:57;;;;;;;4.07;2.13;;;;;;;33.28;25.95;94205.97;5074217;28;20052;-59
2021/05/28 06:33:24;;;;;;;4.90;1.80;;;;;;;32.89;25.79;94207.97;5074196;28;20375;-67
2021/05/28 06:35:52;;;;;;;2.67;1.75;;;;;;;32.86;26.32;94206.13;5074452;28;20059;-67
2021/05/28 06:38:20;;;;;;;2.83;1.70;;;;;;;32.23;27.42;94212.13;5074315;28;20056;-63
2021/05/28 06:40:48;;;;;;;4.38;2.47;;;;;;;31.84;27.35;94219.34;5066866;28;20057;-60
2021/05/28 06:43:15;;;;;;;2.33;1.75;;;;;;;31.55;27.20;94207.72;5056295;28;20385;-67
2021/05/28 06:45:42;;;;;;;2.00;1.80;;;;;;;31.79;26.78;94214.47;5065126;28;20047;-68
2021/05/28 06:48:10;;;;;;;2.40;1.98;;;;;;;31.63;27.02;94208.31;5074099;28;20044;-66
2021/05/28 06:50:40;;;;;;;2.58;2.25;;;;;;;31.67;26.98;94207.03;5073999;28;20063;-50
2021/05/28 06:53:08;;;;;;;3.97;1.70;;;;;;;31.95;27.33;94197.44;5073756;28;20048;-51
2021/05/28 06:55:36;;;;;;;2.83;2.00;;;;;;;31.97;26.89;94205.88;5073879;28;20071;-65
2021/05/28 06:58:03;;;;;;;6.75;2.40;;;;;;;32.12;26.43;94195.44;5074069;28;20051;-63
2021/05/28 07:00:30;;;;;;;2.80;2.03;;;;;;;31.97;26.22;94195.06;5073931;28;20044;-62
2021/05/28 07:02:57;;;;;;;2.70;1.90;;;;;;;31.92;26.38;94192.13;5074117;28;20049;-62
2021/05/28 07:05:27;;;;;;;4.00;1.88;;;;;;;33.01;24.99;94204.47;5073460;28;20044;-60
2021/05/28 07:07:55;;;;;;;2.80;2.00;;;;;;;32.27;25.57;94195.81;5073890;28;20044;-65
2021/05/28 07:10:23;;;;;;;3.03;2.00;;;;;;;31.41;26.44;94199.97;5057271;28;20068;-66
2021/05/28 07:12:50;;;;;;;2.08;1.80;;;;;;;31.69;25.70;94210.06;5077605;28;20466;-64
2021/05/28 07:15:18;;;;;;;3.17;1.80;;;;;;;31.84;25.61;94199.69;5076995;28;20052;-58
2021/05/28 07:17:46;;;;;;;3.17;2.10;;;;;;;31.70;25.71;94203.47;5077515;28;20044;-65
2021/05/28 07:20:14;;;;;;;3.20;2.42;;;;;;;31.33;25.58;94206.72;5077163;28;20048;-66
2021/05/28 07:22:41;;;;;;;4.88;2.42;;;;;;;31.39;25.84;94199.63;5076447;28;20056;-67
2021/05/28 07:25:09;;;;;;;3.85;2.42;;;;;;;31.52;26.19;94203.19;5076995;28;20044;-66
2021/05/28 07:27:37;;;;;;;2.72;2.47;;;;;;;31.56;26.13;94203.84;5077302;28;20450;-67
2021/05/28 07:30:08;;;;;;;3.75;2.50;;;;;;;31.24;25.72;94205.38;5077085;28;20044;-66
2021/05/28 07:32:37;;;;;;;5.05;3.13;;;;;;;31.23;25.49;94206.56;5077526;28;20045;-47
2021/05/28 07:35:06;;;;;;;8.10;3.47;;;;;;;31.47;25.41;94209.06;5077057;28;20052;-59
2021/05/28 07:37:33;;;;;;;4.80;3.90;;;;;;;30.89;26.03;94209.63;5077243;28;20041;-55
2021/05/28 07:40:00;;;;;;;3.67;3.30;;;;;;;31.13;25.95;94209.47;5076474;28;20053;-66
2021/05/28 07:42:28;;;;;;;3.85;3.40;;;;;;;31.21;26.18;94205.44;5075913;28;20041;-54
2021/05/28 07:44:55;;;;;;;4.30;3.20;;;;;;;30.73;27.16;94208.84;5076784;28;20044;-67
2021/05/28 07:47:22;;;;;;;3.83;3.08;;;;;;;30.95;26.56;94205.25;5076961;28;20056;-66
2021/05/28 07:49:49;;;;;;;3.45;2.92;;;;;;;30.74;26.80;94213.06;5076905;28;20044;-67
2021/05/28 07:52:17;;;;;;;4.45;3.38;;;;;;;30.61;27.29;94219.09;5089221;28;20057;-48
2021/05/28 07:54:44;;;;;;;3.78;3.10;;;;;;;30.98;26.81;94222.56;5076553;28;20045;-59
2021/05/28 07:57:11;;;;;;;5.75;3.30;;;;;;;30.70;27.10;94218.53;5076797;28;20047;-66
2021/05/28 07:59:38;;;;;;;5.38;3.33;;;;;;;30.99;26.34;94232.16;5076633;28;20056;-66
2021/05/28 08:02:06;;;;;;;9.70;3.28;;;;;;;30.73;26.96;94235.84;5076294;28;20052;-63
2021/05/28 08:04:33;;;;;;;5.05;3.33;;;;;;;30.16;28.05;94236.94;5076549;28;20043;-67
2021/05/28 08:07:01;;;;;;;5.72;3.17;;;;;;;29.97;28.58;94241.88;5076710;28;20048;-57
2021/05/28 08:09:28;;;;;;;3.50;3.00;;;;;;;29.83;28.40;94236.75;5076347;28;20040;-63
2021/05/28 08:11:55;;;;;;;4.03;3.45;;;;;;;30.00;27.96;94241.06;5075625;28;20395;-65
2021/05/28 08:14:22;;;;;;;3.55;3.10;;;;;;;29.80;28.39;94252.97;5076272;28;20052;-65
2021/05/28 08:16:49;;;;;;;7.30;3.83;;;;;;;30.35;27.32;94255.06;5076420;28;20557;-63
2021/05/28 08:19:17;;;;;;;6.50;4.40;;;;;;;30.01;27.85;94257.97;5058665;28;20052;-64
2021/05/28 08:21:44;;;;;;;10.07;3.70;;;;;;;29.49;28.54;94276.56;5075350;28;20044;-66
2021/05/28 08:24:11;;;;;;;5.40;4.22;;;;;;;29.30;28.62;94273.34;5075678;28;20051;-67
2021/05/28 08:26:39;;;;;;;4.82;4.28;;;;;;;29.52;28.55;94273.06;5076335;28;20044;-67
2021/05/28 08:29:07;;;;;;;7.70;5.05;;;;;;;28.97;28.33;94306.53;5076082;28;20051;-66
2021/05/28 08:31:35;;;;;;;7.88;5.20;;;;;;;29.61;27.14;94286.75;5076073;28;20052;-68
2021/05/28 08:34:02;;;;;;;9.88;6.70;;;;;;;29.21;27.03;94305.41;5075262;28;20044;-50
2021/05/28 08:36:31;;;;;;;9.50;6.40;;;;;;;29.01;27.37;94313.38;5076170;28;20052;-65
2021/05/28 08:38:58;;;;;;;7.30;6.57;;;;;;;28.94;27.02;94308.09;5075821;28;20483;-55
2021/05/28 08:41:26;;;;;;;8.95;7.55;;;;;;;28.24;27.46;94305.81;5074932;28;20048;-64
2021/05/28 08:43:54;;;;;;;8.00;7.20;;;;;;;28.70;27.43;94326.03;5084373;28;20041;-65
2021/05/28 08:46:21;;;;;;;8.95;8.07;;;;;;;28.47;27.28;94324.00;5073283;28;20052;-63
2021/05/28 08:48:50;;;;;;;8.32;7.53;;;;;;;28.65;27.12;94333.78;5075665;28;20048;-66
2021/05/28 08:51:19;;;;;;;8.05;7.30;;;;;;;27.97;28.72;94331.00;5075714;28;20074;-64
2021/05/28 08:53:46;;;;;;;12.82;10.85;;;;;;;28.29;28.71;94330.72;5075158;28;20379;-67
2021/05/28 08:56:13;;;;;;;11.38;9.35;;;;;;;28.62;29.20;94334.56;5075605;28;20442;-68
2021/05/28 08:58:40;;;;;;;10.98;9.77;;;;;;;28.19;29.54;94346.53;5075534;28;20048;-53
2021/05/28 09:01:08;;;;;;;10.05;8.85;;;;;;;28.30;29.90;94357.19;5075601;28;20363;-59
2021/05/28 09:03:37;;;;;;;12.20;8.73;;;;;;;28.14;29.75;94365.00;5075119;28;20364;-50
2021/05/28 09:06:17;;;;;;;8.30;7.50;;;;;;;27.53;30.81;94370.81;5075521;28;20447;-63
2021/05/28 09:08:44;;;;;;;7.95;7.15;;;;;;;28.11;29.94;94371.94;5057653;28;20055;-60
2021/05/28 09:11:19;;;;;;;6.95;6.32;;;;;;;27.76;30.25;94367.63;5074788;28;20052;-67
2021/05/28 09:13:54;;;;;;;10.27;6.28;;;;;;;28.33;29.25;94377.91;5074930;28;20403;-56
2021/05/28 09:16:24;;;;;;;6.63;5.97;;;;;;;27.97;29.99;94377.44;5075164;28;20067;-57
2021/05/28 09:18:53;;;;;;;6.10;5.53;;;;;;;27.94;29.79;94388.97;5075342;28;20040;-65
2021/05/28 09:21:30;;;;;;;6.68;6.00;;;;;;;28.68;28.14;94382.16;5075114;28;20439;-59
2021/05/28 09:24:06;;;;;;;6.07;5.43;;;;;;;27.84;29.97;94384.44;5074375;28;20052;-64
2021/05/28 09:26:36;;;;;;;7.45;5.75;;;;;;;27.89;30.47;94397.47;5075051;28;20071;-66
2021/05/28 09:29:05;;;;;;;6.07;5.47;;;;;;;28.13;30.25;94382.28;5074906;28;20052;-62
2021/05/28 09:31:34;;;;;;;5.72;5.28;;;;;;;27.85;30.22;94392.13;5075026;28;20460;-63
2021/05/28 09:34:04;;;;;;;6.32;5.72;;;;;;;28.20;29.81;94379.53;5073957;28;20051;-63
2021/05/28 09:36:40;;;;;;;5.85;5.35;;;;;;;28.13;29.56;94391.13;5075042;28;20055;-51
2021/05/28 09:39:15;;;;;;;5.60;5.10;;;;;;;28.46;29.00;94395.06;5074760;28;20064;-65
2021/05/28 09:41:47;;;;;;;5.82;5.20;;;;;;;28.07;29.83;94381.94;5060231;28;20751;-68
2021/05/28 09:44:15;;;;;;;;;;;;;;;28.05;30.07;94378.88;5072471;28;20455;-63
2021/05/28 09:47:06;;;;;;;13.70;12.30;;;;;;;27.87;30.39;94383.66;5074709;28;20274;-64
2021/05/28 09:49:36;;;;;;;9.07;7.20;;;;;;;27.92;29.98;94385.91;5074765;28;20060;-67
2021/05/28 09:52:08;;;;;;;16.75;14.45;;;;;;;28.36;30.04;94395.16;5074620;28;20044;-60
2021/05/28 09:54:36;;;;;;;13.43;11.57;;;;;;;28.21;30.13;94387.19;5074475;28;20052;-68
2021/05/28 09:57:03;;;;;;;12.50;11.20;;;;;;;28.54;29.10;94387.69;5074796;28;20045;-65
2021/05/28 09:59:45;;;;;;;9.02;8.13;;;;;;;28.18;29.45;94395.28;5056881;28;20055;-67
2021/05/28 10:02:30;;;;;;;7.80;7.10;;;;;;;27.94;29.74;94387.06;5074410;28;20044;-68
2021/05/28 10:04:58;;;;;;;6.68;6.05;;;;;;;28.05;29.48;94392.31;5074527;28;20049;-68
2021/05/28 10:07:27;;;;;;;6.75;6.00;;;;;;;28.27;28.76;94397.53;5074760;28;20051;-68
2021/05/28 10:09:56;;;;;;;5.60;5.10;;;;;;;28.34;28.56;94395.53;5074331;28;20048;-69
2021/05/28 10:12:24;;;;;;;5.30;4.88;;;;;;;27.94;28.94;94397.03;5074110;28;20051;-67
2021/05/28 10:14:52;;;;;;;4.90;4.45;;;;;;;27.60;29.48;94403.00;5074461;28;20447;-67
2021/05/28 10:17:20;;;;;;;10.10;4.93;;;;;;;28.04;29.09;94398.09;5074578;28;20049;-68
2021/05/28 10:19:49;;;;;;;6.20;4.88;;;;;;;28.14;28.78;94391.88;5074412;28;20044;-68
2021/05/28 10:22:17;;;;;;;5.47;4.97;;;;;;;28.36;29.10;94397.84;5074025;28;20047;-68
2021/05/28 10:24:45;;;;;;;6.05;4.40;;;;;;;28.31;29.13;94398.28;5074004;28;20051;-67
2021/05/28 10:27:25;;;;;;;5.00;4.60;;;;;;;28.18;29.10;94398.75;5074382;28;20054;-67
2021/05/28 10:29:54;;;;;;;5.50;4.57;;;;;;;27.93;28.91;94392.81;5074243;28;20048;-69
2021/05/28 10:32:22;;;;;;;5.18;4.05;;;;;;;28.41;27.98;94402.81;5074077;28;20047;-66
2021/05/28 10:35:18;;;;;;;4.60;4.20;;;;;;;27.60;29.10;94392.25;5074211;28;20063;-68
2021/05/28 10:37:46;;;;;;;4.90;4.40;;;;;;;28.33;28.20;94393.25;5074297;28;20075;-68
2021/05/28 10:40:24;;;;;;;4.43;4.00;;;;;;;28.56;27.76;94394.19;5073464;28;20053;-66
2021/05/28 10:42:58;;;;;;;5.45;4.20;;;;;;;28.15;29.26;94402.22;5074095;28;20047;-68
2021/05/28 10:46:04;;;;;;;8.02;5.78;;;;;;;27.63;29.51;94398.78;5075873;28;20049;-68
2021/05/28 10:48:41;;;;;;;22.90;18.75;;;;;;;28.27;28.96;94406.38;5035733;28;20092;-67
2021/05/28 10:51:12;;;;;;;7.07;6.38;;;;;;;27.77;29.24;94400.59;5036067;28;20046;-66
2021/05/28 10:53:41;;;;;;;8.90;5.30;;;;;;;27.83;29.73;94394.41;5060046;28;20059;-68
2021/05/28 10:56:13;;;;;;;6.20;5.03;;;;;;;27.88;29.37;94396.69;5077505;28;20048;-69
2021/05/28 10:58:54;;;;;;;4.22;3.90;;;;;;;28.22;28.73;94399.47;5077747;28;20355;-66
2021/05/28 11:04:04;;;;;;;4.93;4.45;;;;;;;27.80;29.05;94394.44;5077175;28;20055;-67
2021/05/28 11:06:31;;;;;;;5.47;4.43;;;;;;;28.09;28.76;94397.66;5077734;28;20059;-67
2021/05/28 11:09:09;;;;;;;4.43;4.03;;;;;;;27.93;29.15;94398.19;5077723;28;20052;-68
2021/05/28 11:11:37;;;;;;;4.65;4.25;;;;;;;27.89;28.82;94392.84;5077315;28;20052;-68
2021/05/28 11:14:20;;;;;;;4.97;4.57;;;;;;;27.76;29.24;94399.06;5077380;28;20052;-67
2021/05/28 11:16:52;;;;;;;7.07;4.35;;;;;;;27.59;29.54;94393.44;5077582;28;20056;-69
2021/05/28 11:19:26;;;;;;;5.63;4.55;;;;;;;28.28;28.68;94393.69;5077360;28;20052;-68
2021/05/28 11:21:54;;;;;;;5.20;4.70;;;;;;;27.66;29.62;94399.94;5077443;28;20336;-68
2021/05/28 11:24:40;;;;;;;5.75;5.15;;;;;;;27.80;29.21;94389.06;5076973;28;20066;-67
2021/05/28 11:27:13;;;;;;;6.30;5.80;;;;;;;27.72;29.14;94392.97;5077591;28;20473;-68
2021/05/28 11:29:41;;;;;;;6.45;5.95;;;;;;;27.38;29.57;94401.59;5077346;28;20482;-67
2021/05/28 11:32:30;;;;;;;6.05;5.55;;;;;;;28.08;28.75;94404.19;5077162;28;20052;-68
2021/05/28 11:35:15;;;;;;;7.65;6.50;;;;;;;27.60;29.47;94403.00;5073556;28;20044;-63
2021/05/28 11:37:59;;;;;;;7.25;6.55;;;;;;;27.63;29.36;94406.84;5077306;28;20382;-66
2021/05/28 11:40:37;;;;;;;6.95;5.90;;;;;;;27.11;29.86;94408.63;5076329;28;20459;-67
2021/05/28 11:43:07;;;;;;;6.68;5.90;;;;;;;27.80;28.38;94400.56;5076977;28;20435;-69
2021/05/28 11:45:36;;;;;;;5.82;5.32;;;;;;;27.51;29.38;94401.91;5076782;28;20059;-68
2021/05/28 11:48:06;;;;;;;6.07;4.80;;;;;;;28.00;28.36;94398.13;5076776;28;20048;-68
2021/05/28 11:50:42;;;;;;;6.05;5.45;;;;;;;27.59;29.03;94395.34;5092076;28;20477;-68